Time;durP1;ratioP1;P1;durP2;ratioP2;P2;SDS_P1;SDS_P2;PMS_P1;PMS_P2;Temp;Humidity;BMP_temperature;BMP_pressure;BME280_temperature;BME280_humidity;BME280_pressure;Samples;Min_cycle;Max_cycle;Signal;HPM_P1;HPM_P2
2023/08/22 00:00:33;;;;;;;21.27;8.20;;;24.80;71.60;;;;;;4969331;28;20465;-74
2023/08/22 00:02:59;;;;;;;13.83;7.93;;;24.80;71.70;;;;;;4971576;28;20933;-74
2023/08/22 00:05:25;;;;;;;13.60;7.83;;;24.90;71.40;;;;;;4953034;28;20959;-74
2023/08/22 00:07:51;;;;;;;11.50;8.17;;;24.90;71.10;;;;;;4971329;28;20428;-73
2023/08/22 00:10:17;;;;;;;12.47;8.43;;;24.90;70.70;;;;;;4951578;28;20464;-73
2023/08/22 00:12:44;;;;;;;16.20;8.47;;;25.00;70.70;;;;;;4971150;28;20459;-75
2023/08/22 00:15:10;;;;;;;13.37;8.07;;;25.00;70.70;;;;;;4971999;28;20447;-74
2023/08/22 00:17:40;;;;;;;12.73;8.50;;;25.10;70.50;;;;;;4971452;28;20593;-74
2023/08/22 00:20:08;;;;;;;15.40;8.33;;;25.20;70.40;;;;;;4969528;28;20785;-73
2023/08/22 00:22:34;;;;;;;12.70;9.33;;;25.10;70.50;;;;;;4970207;28;20484;-73
2023/08/22 00:25:00;;;;;;;12.70;8.80;;;25.10;71.10;;;;;;4971276;28;20431;-73
2023/08/22 00:27:26;;;;;;;13.47;8.03;;;25.10;70.80;;;;;;4972448;28;20439;-74
2023/08/22 00:29:52;;;;;;;12.13;8.23;;;25.00;70.80;;;;;;4970922;28;20182;-73
2023/08/22 00:32:17;;;;;;;11.00;7.30;;;25.00;70.80;;;;;;4968859;28;20548;-73
2023/08/22 00:34:43;;;;;;;14.53;9.37;;;24.80;71.40;;;;;;4970721;28;20230;-73
2023/08/22 00:37:08;;;;;;;13.47;8.20;;;24.60;72.10;;;;;;4971238;28;20201;-74
2023/08/22 00:39:34;;;;;;;11.50;7.53;;;24.60;72.30;;;;;;4970872;28;20279;-73
2023/08/22 00:42:00;;;;;;;12.67;8.37;;;24.50;72.40;;;;;;4969452;28;20234;-74
2023/08/22 00:44:25;;;;;;;11.60;8.17;;;24.50;72.40;;;;;;4970212;28;20207;-73
2023/08/22 00:46:51;;;;;;;11.03;7.40;;;24.60;72.10;;;;;;4971378;28;20718;-74
2023/08/22 00:49:17;;;;;;;16.60;8.63;;;24.60;72.10;;;;;;4966359;28;20185;-74
2023/08/22 00:51:43;;;;;;;13.93;7.53;;;24.60;71.80;;;;;;4969648;28;20465;-73
2023/08/22 00:54:10;;;;;;;15.20;9.03;;;24.60;72.10;;;;;;4975164;28;20185;-73
2023/08/22 00:56:36;;;;;;;13.47;8.90;;;24.70;71.70;;;;;;4972708;28;20438;-74
2023/08/22 00:59:03;;;;;;;15.00;9.07;;;24.70;71.80;;;;;;4976222;28;20406;-73
2023/08/22 01:01:30;;;;;;;12.00;7.83;;;24.60;71.80;;;;;;4954431;28;20849;-74
2023/08/22 01:03:56;;;;;;;15.93;9.27;;;24.70;71.70;;;;;;4975718;28;20440;-74
2023/08/22 01:07:04;;;;;;;13.17;8.10;;;24.70;71.60;;;;;;4959221;28;20462;-74
2023/08/22 01:09:47;;;;;;;13.90;8.33;;;24.60;72.40;;;;;;4972728;28;20206;-73
2023/08/22 01:12:24;;;;;;;15.37;8.53;;;24.60;72.30;;;;;;4968891;28;20467;-73
2023/08/22 01:15:25;;;;;;;12.43;8.13;;;24.60;71.80;;;;;;4969821;28;20441;-73
2023/08/22 01:17:54;;;;;;;12.10;8.30;;;24.50;72.30;;;;;;4975175;28;20422;-73
2023/08/22 01:20:21;;;;;;;15.23;7.50;;;24.50;72.40;;;;;;4972862;28;20470;-74
2023/08/22 01:22:46;;;;;;;11.93;8.67;;;24.50;72.30;;;;;;4975345;28;20478;-74
2023/08/22 01:25:13;;;;;;;23.47;8.93;;;24.60;72.10;;;;;;4986472;28;21029;-74
2023/08/22 01:28:02;;;;;;;12.67;8.27;;;24.60;72.00;;;;;;4981090;28;20190;-73
2023/08/22 01:31:04;;;;;;;13.37;9.00;;;24.50;72.30;;;;;;4923013;28;20466;-74
2023/08/22 01:33:36;;;;;;;9.93;8.20;;;24.50;72.40;;;;;;4957881;28;20496;-73
2023/08/22 01:36:03;;;;;;;14.27;8.80;;;24.50;72.30;;;;;;4975471;28;20437;-72
2023/08/22 01:38:30;;;;;;;11.93;8.13;;;24.50;72.40;;;;;;4975564;28;20437;-73
2023/08/22 01:40:57;;;;;;;11.57;7.70;;;24.50;72.00;;;;;;4973097;28;20500;-73
2023/08/22 01:43:23;;;;;;;11.73;7.70;;;24.40;72.40;;;;;;4977899;28;20461;-74
2023/08/22 01:45:49;;;;;;;9.90;7.80;;;24.30;72.60;;;;;;4975617;28;20423;-74
2023/08/22 01:48:14;;;;;;;13.97;7.80;;;24.10;72.60;;;;;;4976229;28;20183;-73
2023/08/22 01:50:40;;;;;;;12.97;8.10;;;24.10;73.00;;;;;;4973965;28;20267;-74
2023/08/22 01:53:06;;;;;;;13.73;7.97;;;24.10;73.20;;;;;;4975459;28;20193;-73
2023/08/22 01:55:32;;;;;;;12.10;7.83;;;24.10;72.70;;;;;;4974106;28;20198;-74
2023/08/22 01:57:57;;;;;;;11.07;7.83;;;24.20;72.60;;;;;;4975059;28;20186;-74
2023/08/22 02:00:23;;;;;;;15.73;8.67;;;24.10;72.60;;;;;;4971315;28;21054;-73
2023/08/22 02:02:48;;;;;;;14.33;8.27;;;24.10;72.70;;;;;;4974743;28;20679;-72
2023/08/22 02:05:14;;;;;;;15.23;8.23;;;24.10;72.90;;;;;;4974175;28;20230;-73
2023/08/22 02:07:40;;;;;;;9.27;7.63;;;24.00;73.00;;;;;;4973768;28;20282;-72
2023/08/22 02:10:06;;;;;;;11.83;7.27;;;24.00;72.90;;;;;;4974332;28;20710;-72
2023/08/22 02:12:33;;;;;;;13.33;7.37;;;24.00;73.20;;;;;;4973264;28;20534;-73
2023/08/22 02:14:58;;;;;;;11.47;7.13;;;24.20;72.70;;;;;;4971119;28;20234;-73
2023/08/22 02:17:24;;;;;;;9.90;6.90;;;24.20;72.40;;;;;;4973463;28;20797;-74
2023/08/22 02:19:49;;;;;;;13.53;7.43;;;24.10;72.30;;;;;;4973165;28;20187;-73
2023/08/22 02:22:15;;;;;;;11.67;7.87;;;24.10;72.70;;;;;;4971336;28;20216;-73
2023/08/22 02:24:41;;;;;;;12.90;9.57;;;24.10;72.60;;;;;;4972488;28;20208;-73
2023/08/22 02:27:06;;;;;;;11.50;8.17;;;24.10;72.70;;;;;;4973175;28;20346;-74
2023/08/22 02:29:32;;;;;;;13.00;7.83;;;24.00;73.00;;;;;;4967580;28;20674;-73
2023/08/22 02:31:58;;;;;;;11.40;7.23;;;24.00;73.00;;;;;;4971248;28;20208;-74
2023/08/22 02:34:25;;;;;;;14.43;8.60;;;24.00;73.00;;;;;;4971608;28;21097;-72
2023/08/22 02:36:51;;;;;;;13.57;7.53;;;24.00;73.20;;;;;;4972655;28;20182;-74
2023/08/22 02:39:16;;;;;;;10.80;7.20;;;23.80;73.30;;;;;;4970019;28;20417;-74
2023/08/22 02:41:42;;;;;;;12.40;5.93;;;23.80;72.70;;;;;;4970251;28;20222;-72
2023/08/22 02:44:08;;;;;;;11.20;6.30;;;23.80;72.60;;;;;;4972350;28;20709;-72
2023/08/22 02:46:33;;;;;;;10.03;6.33;;;23.80;72.40;;;;;;4972124;28;20185;-73
2023/08/22 02:48:59;;;;;;;10.80;6.50;;;23.80;72.40;;;;;;4972212;28;20182;-73
2023/08/22 02:51:24;;;;;;;11.57;7.50;;;23.80;72.60;;;;;;4969501;28;20693;-72
2023/08/22 02:53:50;;;;;;;14.00;7.53;;;23.90;72.40;;;;;;4975067;28;20187;-72
2023/08/22 02:56:15;;;;;;;11.10;7.47;;;23.90;72.40;;;;;;4973415;28;20239;-72
2023/08/22 02:58:41;;;;;;;14.60;8.23;;;23.90;72.60;;;;;;4979149;28;20207;-71
2023/08/22 03:01:07;;;;;;;12.13;8.47;;;23.90;72.90;;;;;;4970420;28;20218;-72
2023/08/22 03:03:33;;;;;;;13.20;6.90;;;24.00;72.70;;;;;;4971937;28;20193;-72
2023/08/22 03:06:00;;;;;;;8.93;6.43;;;24.00;71.80;;;;;;4971793;28;20536;-73
2023/08/22 03:08:26;;;;;;;9.83;6.93;;;23.90;72.10;;;;;;4971587;28;20286;-72
2023/08/22 03:10:52;;;;;;;11.07;6.40;;;23.90;71.80;;;;;;4973400;28;20471;-74
2023/08/22 03:13:18;;;;;;;9.33;6.13;;;23.90;71.70;;;;;;4971605;28;20795;-73
2023/08/22 03:15:44;;;;;;;9.90;6.77;;;23.90;71.40;;;;;;4954465;28;20189;-74
2023/08/22 03:18:10;;;;;;;8.70;5.90;;;23.90;71.40;;;;;;4972309;28;20179;-74
2023/08/22 03:20:35;;;;;;;9.47;6.23;;;23.90;71.00;;;;;;4969949;28;21063;-75
2023/08/22 03:23:01;;;;;;;7.97;5.73;;;23.90;71.10;;;;;;4972188;28;20195;-73
2023/08/22 03:25:26;;;;;;;8.20;6.30;;;23.80;71.30;;;;;;4971064;28;20186;-73
2023/08/22 03:27:52;;;;;;;9.47;6.40;;;23.80;71.30;;;;;;4971969;28;20197;-73
2023/08/22 03:30:18;;;;;;;13.40;7.83;;;23.80;71.40;;;;;;4970315;28;20225;-74
2023/08/22 03:32:43;;;;;;;13.17;8.17;;;23.80;72.40;;;;;;4972126;28;20255;-74
2023/08/22 03:35:09;;;;;;;14.80;7.60;;;23.80;72.60;;;;;;4972413;28;20280;-74
2023/08/22 03:37:35;;;;;;;12.30;7.40;;;23.70;73.00;;;;;;4973110;28;20189;-74
2023/08/22 03:40:02;;;;;;;13.33;8.40;;;23.60;73.60;;;;;;4971806;28;20197;-72
2023/08/22 03:42:28;;;;;;;14.07;7.87;;;23.40;74.00;;;;;;4972168;28;20248;-73
2023/08/22 03:44:53;;;;;;;18.40;7.83;;;23.20;74.60;;;;;;4971158;28;21416;-73
2023/08/22 03:47:19;;;;;;;12.33;7.50;;;23.10;75.20;;;;;;4971342;28;20193;-73
2023/08/22 03:49:44;;;;;;;10.37;7.50;;;23.00;75.50;;;;;;4970585;28;20192;-72
2023/08/22 03:52:10;;;;;;;12.27;7.70;;;22.90;75.70;;;;;;4968853;28;20205;-73
2023/08/22 03:54:35;;;;;;;13.27;7.97;;;22.90;75.80;;;;;;4970245;28;20229;-72
2023/08/22 03:57:01;;;;;;;13.40;7.80;;;22.90;75.70;;;;;;4972793;28;20204;-74
2023/08/22 03:59:27;;;;;;;14.93;8.00;;;22.90;75.70;;;;;;4972211;28;20193;-72
2023/08/22 04:01:53;;;;;;;12.27;8.03;;;22.90;75.70;;;;;;4970822;28;20226;-73
2023/08/22 04:04:18;;;;;;;12.53;7.90;;;22.90;75.50;;;;;;4954368;28;20275;-74
2023/08/22 04:06:44;;;;;;;12.37;7.70;;;23.00;75.70;;;;;;4970671;28;20277;-74
2023/08/22 04:09:09;;;;;;;10.00;7.50;;;23.00;75.50;;;;;;4971122;28;20191;-73
2023/08/22 04:11:37;;;;;;;10.57;7.37;;;23.00;75.20;;;;;;4969710;28;20247;-73
2023/08/22 04:14:03;;;;;;;10.30;7.60;;;23.10;75.10;;;;;;4971690;28;20182;-72
2023/08/22 04:16:28;;;;;;;11.17;7.53;;;23.10;75.10;;;;;;4971030;28;21560;-74
2023/08/22 04:18:54;;;;;;;12.90;8.43;;;23.10;74.90;;;;;;4971478;28;20186;-73
2023/08/22 04:21:19;;;;;;;10.33;7.80;;;23.10;75.10;;;;;;4969250;28;20661;-74
2023/08/22 04:23:45;;;;;;;11.73;7.70;;;23.10;75.10;;;;;;4970632;28;20516;-72
2023/08/22 04:26:10;;;;;;;11.87;7.90;;;23.20;75.10;;;;;;4971081;28;20178;-74
2023/08/22 04:28:36;;;;;;;12.20;7.60;;;23.30;74.80;;;;;;4971338;28;20192;-72
2023/08/22 04:31:02;;;;;;;12.90;8.70;;;23.40;74.50;;;;;;4969274;28;20209;-73
2023/08/22 04:33:28;;;;;;;12.07;7.40;;;23.40;74.20;;;;;;4974990;28;20788;-71
2023/08/22 04:35:53;;;;;;;11.10;7.70;;;23.30;74.60;;;;;;4974295;28;20188;-74
2023/08/22 04:38:19;;;;;;;11.00;7.10;;;23.30;74.50;;;;;;4975826;28;20725;-72
2023/08/22 04:40:45;;;;;;;12.20;8.53;;;23.20;74.60;;;;;;4973617;28;20245;-72
2023/08/22 04:43:11;;;;;;;14.57;8.13;;;23.10;75.10;;;;;;4975040;28;20192;-72
2023/08/22 04:45:36;;;;;;;12.63;8.33;;;23.10;75.50;;;;;;4972125;28;20802;-72
2023/08/22 04:48:02;;;;;;;9.93;7.27;;;23.00;75.70;;;;;;4974739;28;20184;-73
2023/08/22 04:50:29;;;;;;;13.60;8.27;;;23.10;75.70;;;;;;4972400;28;20210;-75
2023/08/22 04:52:55;;;;;;;14.40;8.33;;;23.10;75.50;;;;;;4974783;28;20268;-73
2023/08/22 04:55:21;;;;;;;10.60;7.70;;;23.20;74.90;;;;;;4974470;28;20931;-73
2023/08/22 04:57:46;;;;;;;12.13;7.90;;;23.20;74.80;;;;;;4975295;28;20511;-74
2023/08/22 05:00:13;;;;;;;11.47;8.40;;;23.20;75.10;;;;;;4972928;28;20198;-73
2023/08/22 05:02:39;;;;;;;11.30;7.40;;;23.10;75.20;;;;;;4974169;28;20306;-74
2023/08/22 05:05:07;;;;;;;13.40;8.23;;;23.10;75.40;;;;;;4973770;28;20793;-74
2023/08/22 05:07:32;;;;;;;13.93;8.27;;;23.00;75.70;;;;;;4973521;28;20884;-74
2023/08/22 05:09:58;;;;;;;11.90;8.60;;;22.90;75.90;;;;;;4973533;28;20457;-74
2023/08/22 05:12:23;;;;;;;18.00;8.97;;;22.90;76.10;;;;;;4974688;28;20200;-73
2023/08/22 05:14:49;;;;;;;13.90;7.73;;;22.90;76.10;;;;;;4975254;28;20447;-72
2023/08/22 05:17:15;;;;;;;15.50;9.30;;;22.90;76.10;;;;;;4974560;28;20192;-72
2023/08/22 05:19:40;;;;;;;12.73;8.90;;;22.90;76.10;;;;;;4973429;28;20582;-72
2023/08/22 05:22:06;;;;;;;11.37;9.00;;;22.80;76.40;;;;;;4972205;28;20849;-72
2023/08/22 05:24:32;;;;;;;11.23;8.30;;;22.90;76.80;;;;;;4976437;28;20700;-72
2023/08/22 05:26:57;;;;;;;14.10;8.57;;;22.90;77.00;;;;;;4973638;28;20181;-72
2023/08/22 05:29:23;;;;;;;16.67;9.80;;;23.00;76.40;;;;;;4974286;28;20262;-73
2023/08/22 05:31:48;;;;;;;16.10;9.50;;;22.90;76.20;;;;;;4972396;28;20213;-73
2023/08/22 05:34:14;;;;;;;14.37;9.10;;;23.00;76.20;;;;;;4973974;28;20196;-72
2023/08/22 05:36:40;;;;;;;13.27;8.03;;;23.10;76.40;;;;;;4973977;28;20180;-72
2023/08/22 05:39:10;;;;;;;14.97;8.50;;;23.20;75.70;;;;;;4974453;28;20456;-73
2023/08/22 05:41:36;;;;;;;13.90;9.00;;;23.20;75.80;;;;;;4973284;28;20766;-73
2023/08/22 05:44:01;;;;;;;15.03;9.63;;;23.30;75.20;;;;;;4972932;28;20432;-73
2023/08/22 05:46:27;;;;;;;12.33;8.53;;;23.30;74.90;;;;;;4973707;28;20538;-72
2023/08/22 05:48:53;;;;;;;13.07;8.17;;;23.30;74.90;;;;;;4974470;28;20189;-72
2023/08/22 05:51:18;;;;;;;17.20;8.73;;;23.40;74.60;;;;;;4971349;28;20583;-73
2023/08/22 05:53:44;;;;;;;14.80;8.60;;;23.40;74.80;;;;;;4975587;28;20186;-72
2023/08/22 05:56:09;;;;;;;14.73;7.90;;;23.40;74.90;;;;;;4973429;28;20272;-72
2023/08/22 05:58:35;;;;;;;13.67;8.50;;;23.50;74.60;;;;;;4973638;28;20213;-72
2023/08/22 06:01:09;;;;;;;17.53;8.90;;;23.50;74.20;;;;;;4972490;28;20209;-71
2023/08/22 06:03:35;;;;;;;17.70;9.20;;;23.50;74.20;;;;;;4973023;28;20188;-72
2023/08/22 06:06:01;;;;;;;13.23;8.10;;;23.50;74.20;;;;;;4972861;28;20445;-73
2023/08/22 06:08:26;;;;;;;16.43;8.93;;;23.50;74.20;;;;;;4973274;28;20498;-72
2023/08/22 06:10:52;;;;;;;11.57;7.90;;;23.50;74.20;;;;;;4971158;28;20196;-72
2023/08/22 06:13:18;;;;;;;13.90;8.43;;;23.50;74.00;;;;;;4973291;28;20364;-72
2023/08/22 06:15:43;;;;;;;13.90;7.73;;;23.50;74.20;;;;;;4973401;28;20189;-72
2023/08/22 06:18:09;;;;;;;13.13;8.87;;;23.50;73.70;;;;;;4972484;28;20222;-72
2023/08/22 06:20:38;;;;;;;12.70;7.70;;;23.60;73.60;;;;;;4970501;28;20598;-72
2023/08/22 06:23:05;;;;;;;11.70;7.83;;;23.60;73.60;;;;;;4972970;28;20190;-73
2023/08/22 06:25:30;;;;;;;14.70;8.10;;;23.80;73.20;;;;;;4972650;28;20857;-72
2023/08/22 06:27:56;;;;;;;14.10;9.07;;;23.90;72.90;;;;;;4972514;28;20520;-72
2023/08/22 06:30:21;;;;;;;9.77;7.60;;;24.00;72.90;;;;;;4970711;28;20252;-72
2023/08/22 06:32:47;;;;;;;15.27;8.83;;;24.00;72.60;;;;;;4968746;28;20276;-72
2023/08/22 06:35:12;;;;;;;11.80;8.00;;;24.10;72.60;;;;;;4973360;28;20263;-72
2023/08/22 06:37:38;;;;;;;12.23;8.20;;;24.20;72.60;;;;;;4974704;28;20187;-72
2023/08/22 06:40:05;;;;;;;10.67;7.77;;;24.30;72.40;;;;;;4975391;28;20185;-73
2023/08/22 06:42:31;;;;;;;11.90;9.00;;;24.40;72.00;;;;;;4974867;28;20584;-72
2023/08/22 06:44:57;;;;;;;13.70;8.30;;;24.50;71.80;;;;;;4972596;28;20431;-73
2023/08/22 06:47:22;;;;;;;15.77;8.53;;;24.60;71.70;;;;;;4972993;28;20207;-72
2023/08/22 06:49:48;;;;;;;13.90;8.67;;;24.70;71.10;;;;;;4972440;28;20335;-73
2023/08/22 06:52:14;;;;;;;10.57;8.27;;;24.80;71.00;;;;;;4972062;28;20262;-73
2023/08/22 06:54:40;;;;;;;12.23;8.53;;;24.90;70.50;;;;;;4973894;28;20264;-73
2023/08/22 06:57:06;;;;;;;14.43;9.20;;;25.00;70.40;;;;;;4972568;28;20259;-73
2023/08/22 06:59:32;;;;;;;13.10;8.87;;;25.10;70.40;;;;;;4973601;28;20432;-72
2023/08/22 07:01:58;;;;;;;11.90;8.10;;;25.20;70.10;;;;;;4971378;28;20472;-74
2023/08/22 07:04:24;;;;;;;16.53;9.23;;;25.20;69.80;;;;;;4972442;28;20284;-71
2023/08/22 07:06:49;;;;;;;13.60;9.20;;;25.20;69.10;;;;;;4972269;28;20494;-73
2023/08/22 07:09:15;;;;;;;10.57;7.70;;;25.30;69.40;;;;;;4972381;28;20185;-71
2023/08/22 07:11:42;;;;;;;10.00;6.90;;;25.30;68.60;;;;;;4970328;28;20308;-72
2023/08/22 07:14:08;;;;;;;10.13;7.07;;;25.40;68.30;;;;;;4973055;28;20194;-73
2023/08/22 07:16:33;;;;;;;12.00;8.03;;;25.60;67.90;;;;;;4973579;28;20440;-72
2023/08/22 07:18:59;;;;;;;13.30;8.40;;;25.80;67.60;;;;;;4973785;28;20514;-72
2023/08/22 07:21:25;;;;;;;16.03;7.87;;;25.80;67.20;;;;;;4970963;28;20213;-73
2023/08/22 07:23:51;;;;;;;10.37;7.23;;;25.90;67.00;;;;;;4973236;28;20185;-72
2023/08/22 07:26:16;;;;;;;10.57;7.03;;;25.90;67.00;;;;;;4972865;28;20775;-72
2023/08/22 07:28:42;;;;;;;16.20;8.37;;;26.00;66.90;;;;;;4972741;28;20201;-73
2023/08/22 07:31:08;;;;;;;11.10;8.00;;;26.10;66.70;;;;;;4971831;28;20530;-72
2023/08/22 07:33:33;;;;;;;10.43;7.47;;;26.10;66.40;;;;;;4972844;28;20718;-72
2023/08/22 07:36:01;;;;;;;11.40;7.00;;;26.30;66.30;;;;;;4972199;28;20623;-73
2023/08/22 07:38:26;;;;;;;13.10;9.60;;;26.40;66.00;;;;;;4971956;28;20194;-73
2023/08/22 07:40:52;;;;;;;11.03;7.97;;;26.40;65.70;;;;;;4969122;28;20476;-73
2023/08/22 07:43:17;;;;;;;11.97;7.77;;;26.40;65.70;;;;;;4972235;28;20189;-72
2023/08/22 07:45:43;;;;;;;13.93;8.70;;;26.50;65.70;;;;;;4970986;28;20200;-72
2023/08/22 07:48:09;;;;;;;9.57;7.53;;;26.60;65.60;;;;;;4971448;28;20269;-72
2023/08/22 07:50:35;;;;;;;12.70;8.40;;;26.70;65.30;;;;;;4968976;28;20695;-73
2023/08/22 07:53:01;;;;;;;11.80;8.33;;;26.80;65.10;;;;;;4971748;28;20434;-72
2023/08/22 07:55:27;;;;;;;10.73;7.60;;;26.80;64.80;;;;;;4971196;28;20664;-72
2023/08/22 07:57:53;;;;;;;13.90;9.10;;;27.00;64.80;;;;;;4971070;28;20427;-72
2023/08/22 08:00:19;;;;;;;14.23;8.17;;;27.10;64.70;;;;;;4969388;28;20297;-73
2023/08/22 08:02:45;;;;;;;14.33;9.60;;;27.00;64.20;;;;;;4971683;28;20473;-73
2023/08/22 08:05:12;;;;;;;9.53;7.53;;;27.00;64.50;;;;;;4969691;28;20274;-72
2023/08/22 08:07:38;;;;;;;11.50;8.03;;;27.10;64.50;;;;;;4970842;28;20513;-73
2023/08/22 08:10:04;;;;;;;13.87;8.70;;;27.20;64.50;;;;;;4970289;28;20518;-72
2023/08/22 08:12:30;;;;;;;12.87;9.03;;;27.10;64.70;;;;;;4971623;28;20422;-71
2023/08/22 08:14:56;;;;;;;12.63;8.83;;;27.20;64.40;;;;;;4971787;28;20948;-74
2023/08/22 08:17:21;;;;;;;14.00;8.57;;;27.20;64.40;;;;;;4969332;28;20179;-72
2023/08/22 08:19:47;;;;;;;13.63;9.27;;;27.30;64.40;;;;;;4972294;28;20674;-72
2023/08/22 08:22:13;;;;;;;12.43;8.30;;;27.40;64.20;;;;;;4971067;28;20214;-73
2023/08/22 08:24:38;;;;;;;15.43;7.90;;;27.50;63.80;;;;;;4973256;28;20488;-73
2023/08/22 08:27:05;;;;;;;11.63;7.70;;;27.60;63.40;;;;;;4973508;28;20187;-73
2023/08/22 08:29:30;;;;;;;9.60;7.50;;;27.70;63.20;;;;;;4972597;28;20221;-73
2023/08/22 08:31:56;;;;;;;8.93;7.60;;;27.80;62.80;;;;;;4971543;28;20486;-74
2023/08/22 08:34:23;;;;;;;14.97;9.27;;;27.80;62.90;;;;;;4972265;28;20281;-72
2023/08/22 08:36:50;;;;;;;13.90;8.40;;;27.80;62.90;;;;;;4972323;28;20434;-73
2023/08/22 08:39:17;;;;;;;17.60;8.57;;;27.80;63.10;;;;;;4973015;28;20453;-74
2023/08/22 08:41:53;;;;;;;11.33;7.90;;;27.90;62.90;;;;;;4970664;28;20510;-73
2023/08/22 08:44:20;;;;;;;8.90;6.97;;;28.00;62.50;;;;;;4975813;28;20430;-72
2023/08/22 08:46:46;;;;;;;10.33;7.10;;;28.00;61.90;;;;;;4979956;28;20418;-73
2023/08/22 08:49:14;;;;;;;10.87;7.67;;;28.10;61.90;;;;;;4975050;28;20426;-73
2023/08/22 08:51:41;;;;;;;11.00;7.70;;;28.20;61.60;;;;;;4970934;28;20470;-73
2023/08/22 08:54:07;;;;;;;13.00;8.87;;;28.10;61.90;;;;;;4975211;28;20536;-73
2023/08/22 08:56:33;;;;;;;11.17;7.73;;;28.10;61.60;;;;;;4973771;28;20435;-72
2023/08/22 08:58:59;;;;;;;10.50;7.43;;;28.00;61.70;;;;;;4973415;28;20430;-72
2023/08/22 09:01:26;;;;;;;14.07;8.50;;;28.00;61.90;;;;;;4969976;28;20486;-72
2023/08/22 09:03:52;;;;;;;13.03;7.67;;;28.20;61.70;;;;;;4971669;28;20188;-73
2023/08/22 09:06:20;;;;;;;15.07;7.00;;;28.30;61.50;;;;;;4978034;28;20465;-72
2023/08/22 09:09:03;;;;;;;10.63;6.67;;;28.50;61.20;;;;;;4975211;28;20567;-73
2023/08/22 09:11:29;;;;;;;20.00;8.27;;;28.60;60.60;;;;;;4969847;28;20574;-73
2023/08/22 09:13:56;;;;;;;9.47;7.30;;;28.70;60.60;;;;;;4971139;28;20866;-73
2023/08/22 09:16:24;;;;;;;12.97;7.60;;;28.70;60.60;;;;;;4972072;28;20196;-73
2023/08/22 09:18:49;;;;;;;9.27;6.40;;;28.70;60.70;;;;;;4969213;28;21107;-73
2023/08/22 09:21:16;;;;;;;10.60;7.03;;;28.80;61.00;;;;;;4973192;28;20470;-73
2023/08/22 09:23:42;;;;;;;15.27;7.70;;;28.90;60.70;;;;;;4974606;28;20294;-74
2023/08/22 09:26:10;;;;;;;14.97;7.80;;;29.10;60.40;;;;;;4975031;28;20531;-73
2023/08/22 09:28:39;;;;;;;15.17;9.33;;;29.00;60.30;;;;;;4970980;28;20672;-72
2023/08/22 09:31:05;;;;;;;14.03;8.13;;;29.10;60.40;;;;;;4972629;28;20472;-73
2023/08/22 09:33:48;;;;;;;12.43;8.60;;;29.10;60.40;;;;;;4974481;28;20427;-72
2023/08/22 09:36:21;;;;;;;10.83;7.90;;;29.00;60.40;;;;;;4974402;28;20242;-74
2023/08/22 09:38:57;;;;;;;10.27;7.30;;;29.10;60.60;;;;;;4974802;28;20407;-73
2023/08/22 09:41:25;;;;;;;12.67;8.00;;;29.10;60.40;;;;;;4969581;28;20966;-75
2023/08/22 09:44:00;;;;;;;10.87;8.03;;;29.30;60.10;;;;;;4968340;28;20423;-72
2023/08/22 09:46:27;;;;;;;9.20;7.97;;;29.30;60.30;;;;;;4973761;28;20426;-73
2023/08/22 09:48:55;;;;;;;10.90;7.90;;;29.40;60.10;;;;;;4974523;28;20501;-72
2023/08/22 09:51:21;;;;;;;13.43;7.63;;;29.30;60.10;;;;;;4973177;28;20473;-72
2023/08/22 09:53:52;;;;;;;12.57;7.03;;;29.30;60.30;;;;;;4974146;28;20423;-71
2023/08/22 09:56:21;;;;;;;11.47;7.80;;;29.50;60.00;;;;;;4973895;28;20180;-72
2023/08/22 09:58:47;;;;;;;8.30;7.13;;;29.50;59.90;;;;;;4974091;28;20483;-73
2023/08/22 10:01:16;;;;;;;13.03;8.17;;;29.70;59.50;;;;;;4972505;28;20970;-73
2023/08/22 10:03:44;;;;;;;11.90;8.07;;;29.70;59.50;;;;;;4974137;28;20686;-73
2023/08/22 10:06:14;;;;;;;12.20;8.07;;;29.80;59.30;;;;;;4954010;28;20467;-73
2023/08/22 10:08:46;;;;;;;11.93;8.30;;;29.90;59.10;;;;;;4974464;28;20443;-74
2023/08/22 10:11:13;;;;;;;12.07;7.57;;;29.80;59.20;;;;;;4972102;28;20505;-73
2023/08/22 10:13:40;;;;;;;8.80;7.27;;;30.00;59.10;;;;;;4974402;28;20427;-72
2023/08/22 10:16:06;;;;;;;11.10;7.27;;;30.10;58.90;;;;;;4974377;28;20715;-73
2023/08/22 10:18:32;;;;;;;11.23;8.17;;;30.20;59.10;;;;;;4974491;28;20854;-73
2023/08/22 10:20:58;;;;;;;10.53;7.40;;;30.30;58.70;;;;;;4970032;28;20534;-72
2023/08/22 10:23:42;;;;;;;11.00;8.00;;;30.40;58.80;;;;;;4971554;28;20782;-73
2023/08/22 10:26:08;;;;;;;10.67;7.43;;;30.40;58.70;;;;;;4969142;28;20426;-72
2023/08/22 10:28:41;;;;;;;11.37;7.63;;;30.50;58.80;;;;;;4973506;28;20431;-72
2023/08/22 10:31:06;;;;;;;14.67;8.33;;;30.50;58.50;;;;;;4970337;28;20235;-73
2023/08/22 10:33:32;;;;;;;14.00;7.60;;;30.50;58.50;;;;;;4955567;28;20474;-73
2023/08/22 10:36:17;;;;;;;8.97;6.77;;;30.60;58.20;;;;;;4973803;28;20214;-73
2023/08/22 10:38:53;;;;;;;9.70;7.30;;;30.80;58.40;;;;;;4973817;28;20187;-73
2023/08/22 10:41:53;;;;;;;13.03;7.37;;;30.80;58.20;;;;;;4971947;28;20489;-72
2023/08/22 10:44:29;;;;;;;11.90;7.70;;;31.10;58.10;;;;;;4972991;28;21108;-73
2023/08/22 10:47:06;;;;;;;10.27;6.60;;;31.50;57.20;;;;;;4970144;28;20422;-76
2023/08/22 10:49:33;;;;;;;12.90;7.63;;;31.30;57.20;;;;;;4969984;28;20450;-72
2023/08/22 10:52:06;;;;;;;7.90;6.40;;;31.40;57.00;;;;;;4971853;28;20461;-74
2023/08/22 10:54:33;;;;;;;9.60;7.67;;;31.30;57.70;;;;;;4971896;28;20439;-73
2023/08/22 10:57:18;;;;;;;9.37;7.50;;;31.10;57.30;;;;;;4956971;28;20822;-72
2023/08/22 11:00:33;;;;;;;10.53;7.30;;;30.90;58.10;;;;;;4973689;28;20431;-73
2023/08/22 11:02:59;;;;;;;8.23;6.03;;;31.00;57.60;;;;;;4971766;28;20586;-72
2023/08/22 11:05:26;;;;;;;14.50;7.00;;;31.40;56.60;;;;;;4972683;28;20963;-73
2023/08/22 11:07:52;;;;;;;8.23;6.37;;;31.30;56.90;;;;;;4972301;28;20488;-72
2023/08/22 11:10:23;;;;;;;9.80;6.87;;;31.20;57.00;;;;;;4970673;28;20636;-72
2023/08/22 11:12:50;;;;;;;13.43;6.57;;;30.90;57.60;;;;;;4972751;28;20180;-72
2023/08/22 11:15:17;;;;;;;10.90;6.67;;;30.70;57.20;;;;;;4973259;28;20418;-73
2023/08/22 11:17:45;;;;;;;10.37;6.47;;;30.80;57.30;;;;;;4973301;28;20411;-71
2023/08/22 11:20:12;;;;;;;10.07;6.60;;;31.20;57.00;;;;;;4970476;28;20435;-73
2023/08/22 11:22:40;;;;;;;11.73;7.27;;;31.60;56.50;;;;;;4972896;28;20474;-71
2023/08/22 11:25:06;;;;;;;10.10;7.00;;;31.60;55.80;;;;;;4973351;28;21037;-72
2023/08/22 11:27:35;;;;;;;12.07;7.80;;;31.50;56.40;;;;;;4974076;28;21102;-72
2023/08/22 11:30:01;;;;;;;8.33;6.90;;;31.40;56.50;;;;;;4970778;28;20947;-73
2023/08/22 11:32:28;;;;;;;10.00;7.00;;;31.70;56.00;;;;;;4972426;28;20443;-73
2023/08/22 11:35:03;;;;;;;10.40;6.70;;;31.80;55.70;;;;;;4972669;28;20202;-73
2023/08/22 11:37:31;;;;;;;10.53;7.20;;;31.60;56.20;;;;;;4972405;28;20466;-73
2023/08/22 11:39:59;;;;;;;9.33;6.90;;;31.80;56.40;;;;;;4970759;28;20426;-72
2023/08/22 11:42:29;;;;;;;8.30;6.70;;;31.70;56.00;;;;;;4972448;28;20484;-72
2023/08/22 11:45:04;;;;;;;8.87;7.43;;;31.50;56.10;;;;;;4973609;28;20456;-72
2023/08/22 11:47:50;;;;;;;9.60;7.20;;;31.90;55.40;;;;;;4953546;28;20453;-74
2023/08/22 11:50:17;;;;;;;12.43;7.93;;;31.70;55.30;;;;;;4969042;28;20475;-73
2023/08/22 11:52:45;;;;;;;9.40;6.80;;;31.90;55.30;;;;;;4972761;28;20434;-73
2023/08/22 11:55:14;;;;;;;9.40;7.33;;;32.30;55.20;;;;;;4972529;28;20434;-72
2023/08/22 11:57:42;;;;;;;9.30;6.40;;;32.50;53.80;;;;;;4970861;28;21023;-74
2023/08/22 12:00:10;;;;;;;10.30;7.17;;;32.10;54.40;;;;;;4969779;28;20427;-73
2023/08/22 12:02:37;;;;;;;10.23;6.30;;;31.90;54.60;;;;;;4969571;28;20565;-73
2023/08/22 12:05:04;;;;;;;10.77;7.17;;;31.90;54.60;;;;;;4972139;28;20942;-72
2023/08/22 12:07:41;;;;;;;12.20;6.97;;;32.30;54.00;;;;;;4971763;28;20488;-72
2023/08/22 12:10:09;;;;;;;11.63;6.67;;;32.00;54.60;;;;;;4971696;28;20453;-72
2023/08/22 12:12:34;;;;;;;8.90;6.63;;;32.00;54.60;;;;;;4974907;28;20935;-72
2023/08/22 12:15:00;;;;;;;10.00;7.10;;;32.50;53.70;;;;;;4972450;28;20435;-72
2023/08/22 12:17:26;;;;;;;9.20;6.33;;;32.60;53.20;;;;;;4971958;28;20253;-72
2023/08/22 12:19:52;;;;;;;8.07;5.53;;;33.10;52.90;;;;;;4979041;28;20506;-74
2023/08/22 12:22:18;;;;;;;11.63;5.67;;;33.60;51.30;;;;;;4975005;28;20234;-73
2023/08/22 12:24:44;;;;;;;7.83;5.87;;;34.00;50.60;;;;;;4976598;28;20235;-71
2023/08/22 12:27:11;;;;;;;9.07;6.50;;;34.20;50.30;;;;;;4972438;28;20262;-73
2023/08/22 12:29:36;;;;;;;9.00;6.50;;;34.20;50.20;;;;;;4970755;28;20538;-72
2023/08/22 12:32:02;;;;;;;9.07;5.70;;;33.90;50.70;;;;;;4970071;28;20609;-72
2023/08/22 12:34:28;;;;;;;8.53;6.03;;;33.70;50.70;;;;;;4956024;28;20191;-73
2023/08/22 12:36:53;;;;;;;9.97;6.03;;;33.20;51.80;;;;;;4975497;28;20186;-73
2023/08/22 12:39:19;;;;;;;8.57;5.63;;;33.20;51.70;;;;;;4979410;28;20191;-73